Time;durP1;ratioP1;P1;durP2;ratioP2;P2;SDS_P1;SDS_P2;PMS_P1;PMS_P2;Temp;Humidity;BMP_temperature;BMP_pressure;BME280_temperature;BME280_humidity;BME280_pressure;Samples;Min_cycle;Max_cycle;Signal;HPM_P1;HPM_P2
2022/12/03 00:02:59;;;;;;;20.08;10.32;;;10.30;58.10;;;;;;6095404;29;20095;-80
2022/12/03 00:06:00;;;;;;;23.33;8.73;;;10.20;57.50;;;;;;6098178;29;20127;-79
2022/12/03 00:09:02;;;;;;;23.75;9.20;;;10.20;57.50;;;;;;6085449;29;20032;-80
2022/12/03 00:12:04;;;;;;;29.80;10.27;;;10.20;57.50;;;;;;6099890;29;20539;-80
2022/12/03 00:15:06;;;;;;;24.33;9.82;;;10.20;57.70;;;;;;6097895;29;20064;-80
2022/12/03 00:18:06;;;;;;;27.25;10.65;;;10.10;57.70;;;;;;6100323;29;20064;-79
2022/12/03 00:21:07;;;;;;;24.20;9.80;;;10.10;57.80;;;;;;6100949;29;20040;-80
2022/12/03 00:24:08;;;;;;;25.25;9.60;;;10.00;57.90;;;;;;6102823;29;20028;-80
2022/12/03 00:27:09;;;;;;;21.27;10.23;;;10.00;58.10;;;;;;6100493;29;20048;-79
2022/12/03 00:30:13;;;;;;;21.98;9.45;;;9.90;58.20;;;;;;6102938;29;20048;-80
2022/12/03 00:33:15;;;;;;;22.50;10.48;;;9.90;58.30;;;;;;6096807;29;20046;-79
2022/12/03 00:36:17;;;;;;;29.90;10.00;;;9.90;58.30;;;;;;6101931;29;20393;-79
2022/12/03 00:39:17;;;;;;;21.70;9.65;;;9.90;58.30;;;;;;6100339;29;20040;-79
2022/12/03 00:42:19;;;;;;;25.67;9.15;;;10.00;58.30;;;;;;6102404;29;20084;-80
2022/12/03 00:45:19;;;;;;;30.38;9.18;;;10.00;58.20;;;;;;6084125;29;20044;-81
2022/12/03 00:48:20;;;;;;;31.50;9.98;;;9.90;58.10;;;;;;6098788;29;20119;-80
2022/12/03 00:51:21;;;;;;;20.60;8.13;;;9.90;58.20;;;;;;6076964;29;20044;-79
2022/12/03 00:54:22;;;;;;;17.08;7.97;;;9.90;58.20;;;;;;6095846;29;20469;-79
2022/12/03 00:57:23;;;;;;;24.42;9.15;;;9.80;58.20;;;;;;6099774;29;20035;-80
2022/12/03 01:00:24;;;;;;;19.58;8.77;;;9.70;58.30;;;;;;6096316;29;20107;-78
2022/12/03 01:03:25;;;;;;;20.88;8.23;;;9.70;58.50;;;;;;6099516;29;20466;-80
2022/12/03 01:06:26;;;;;;;23.63;8.50;;;9.60;58.70;;;;;;6100874;29;20496;-80
2022/12/03 01:09:27;;;;;;;20.98;7.72;;;9.50;58.80;;;;;;6099813;29;20044;-79
2022/12/03 01:12:28;;;;;;;24.00;8.55;;;9.40;58.90;;;;;;6101105;29;20032;-79
2022/12/03 01:15:28;;;;;;;21.23;8.27;;;9.40;59.10;;;;;;6100759;29;20051;-79
2022/12/03 01:18:29;;;;;;;20.17;8.65;;;9.40;59.10;;;;;;6099952;29;20063;-80
2022/12/03 01:21:31;;;;;;;15.52;8.25;;;9.40;59.10;;;;;;6100289;29;20051;-80
2022/12/03 01:24:32;;;;;;;22.70;9.27;;;9.40;59.30;;;;;;6100545;29;20387;-79
2022/12/03 01:27:33;;;;;;;26.48;8.02;;;9.40;59.30;;;;;;6104460;29;20461;-78
2022/12/03 01:32:15;;;;;;;21.98;9.20;;;9.30;59.30;;;;;;6098027;29;20044;-79
2022/12/03 01:33:55;;;;;;;16.52;7.65;;;9.30;59.40;;;;;;6099011;29;20036;-77
2022/12/03 01:36:56;;;;;;;21.05;7.85;;;9.20;59.40;;;;;;6099908;29;20123;-79
2022/12/03 01:39:58;;;;;;;23.08;8.02;;;9.20;59.60;;;;;;6089162;29;20048;-79
2022/12/03 01:42:59;;;;;;;22.05;8.15;;;9.10;59.60;;;;;;6099455;29;20036;-79
2022/12/03 01:46:00;;;;;;;20.38;8.02;;;9.10;59.80;;;;;;6095716;29;20044;-79
2022/12/03 01:49:01;;;;;;;22.60;8.00;;;9.00;59.90;;;;;;6093512;29;20036;-81
2022/12/03 01:52:02;;;;;;;20.38;7.53;;;9.00;60.00;;;;;;6079586;29;20052;-80
2022/12/03 01:55:10;;;;;;;22.20;8.65;;;8.90;60.00;;;;;;6097859;29;20048;-80
2022/12/03 01:58:14;;;;;;;14.65;7.43;;;8.90;60.20;;;;;;6084374;29;20438;-80
2022/12/03 02:01:17;;;;;;;19.75;8.43;;;8.90;60.20;;;;;;6103375;29;20075;-80
2022/12/03 02:04:24;;;;;;;17.70;7.68;;;8.90;60.20;;;;;;6087716;29;20066;-79
2022/12/03 02:07:24;;;;;;;17.67;6.85;;;8.90;60.20;;;;;;6103844;29;20050;-80
2022/12/03 02:10:30;;;;;;;23.05;8.32;;;8.80;60.10;;;;;;6104293;29;20040;-79
2022/12/03 02:13:31;;;;;;;20.58;7.13;;;8.80;60.40;;;;;;6103562;29;20533;-80
2022/12/03 02:16:34;;;;;;;17.88;7.32;;;8.80;60.50;;;;;;6102794;29;20044;-80
2022/12/03 02:19:35;;;;;;;15.88;6.80;;;8.70;60.50;;;;;;6103443;29;20477;-80
2022/12/03 02:22:51;;;;;;;19.15;7.07;;;8.70;60.60;;;;;;6119667;29;20044;-79
2022/12/03 02:25:52;;;;;;;18.48;7.53;;;8.80;60.60;;;;;;6113055;29;20052;-79
2022/12/03 02:28:53;;;;;;;24.48;8.18;;;8.80;60.50;;;;;;6098811;29;20072;-79
2022/12/03 02:31:53;;;;;;;16.55;6.97;;;8.90;60.50;;;;;;6100495;29;20047;-79
2022/12/03 02:34:54;;;;;;;17.35;7.70;;;8.90;60.30;;;;;;6111631;29;21713;-79
2022/12/03 02:38:12;;;;;;;20.73;8.27;;;8.90;60.10;;;;;;6112445;29;20126;-78
2022/12/03 02:42:33;;;;;;;22.35;8.18;;;8.90;60.10;;;;;;6098874;29;20063;-79
2022/12/03 02:44:37;;;;;;;18.83;8.45;;;8.90;60.00;;;;;;6094303;29;20176;-79
2022/12/03 02:47:43;;;;;;;17.08;7.22;;;8.90;60.00;;;;;;6084458;29;20032;-78
2022/12/03 02:50:49;;;;;;;16.42;7.60;;;8.90;60.00;;;;;;6100543;29;20036;-78
2022/12/03 02:53:52;;;;;;;24.02;7.22;;;8.90;60.10;;;;;;6082407;29;20036;-79
2022/12/03 02:56:53;;;;;;;16.38;7.10;;;8.80;60.20;;;;;;6102041;29;20036;-79
2022/12/03 02:59:54;;;;;;;17.00;7.82;;;8.70;60.30;;;;;;6100766;29;20087;-79
2022/12/03 03:02:56;;;;;;;19.85;7.72;;;8.70;60.50;;;;;;6102457;29;20131;-79
2022/12/03 03:05:59;;;;;;;18.30;7.43;;;8.70;60.50;;;;;;6101088;29;20417;-80
2022/12/03 03:09:01;;;;;;;18.98;7.53;;;8.80;60.40;;;;;;6098765;29;20067;-79
2022/12/03 03:12:02;;;;;;;17.75;6.60;;;8.80;60.40;;;;;;6085508;29;20063;-80
2022/12/03 03:15:04;;;;;;;20.00;7.82;;;8.80;60.40;;;;;;6099060;29;20040;-79
2022/12/03 03:18:06;;;;;;;16.50;7.00;;;8.80;60.40;;;;;;6087696;29;20040;-79
2022/12/03 03:21:07;;;;;;;17.48;7.55;;;8.80;60.40;;;;;;6091292;29;20501;-79
2022/12/03 03:24:08;;;;;;;19.17;7.30;;;8.90;60.30;;;;;;6094179;29;20048;-79
2022/12/03 03:27:09;;;;;;;16.60;7.45;;;8.90;60.20;;;;;;6115513;28;20079;-79
2022/12/03 03:30:12;;;;;;;18.77;7.20;;;8.90;60.30;;;;;;6092699;29;20148;-79
2022/12/03 03:33:14;;;;;;;16.85;7.90;;;8.90;60.40;;;;;;6097389;29;20040;-79
2022/12/03 03:36:17;;;;;;;20.20;8.40;;;8.90;60.30;;;;;;6092473;29;20037;-79
2022/12/03 03:39:18;;;;;;;20.58;7.68;;;8.90;60.30;;;;;;6092707;29;20068;-78
2022/12/03 03:42:19;;;;;;;23.50;7.80;;;8.90;60.40;;;;;;6094474;29;20040;-80
2022/12/03 03:45:19;;;;;;;15.35;7.78;;;8.90;60.20;;;;;;6091044;29;20398;-80
2022/12/03 03:48:21;;;;;;;17.60;7.13;;;8.90;60.20;;;;;;6095201;29;20032;-79
2022/12/03 03:51:22;;;;;;;16.63;7.72;;;8.90;60.20;;;;;;6085303;29;20055;-79
2022/12/03 03:54:24;;;;;;;22.25;8.73;;;8.90;60.10;;;;;;6106004;29;20040;-79
2022/12/03 03:57:25;;;;;;;18.77;6.88;;;8.90;60.20;;;;;;6100883;29;20051;-79
2022/12/03 04:00:27;;;;;;;18.80;7.72;;;8.90;60.40;;;;;;6099160;29;20423;-79
2022/12/03 04:03:28;;;;;;;17.17;7.70;;;8.80;60.40;;;;;;6097118;29;20116;-79
2022/12/03 04:06:29;;;;;;;20.40;8.45;;;8.90;60.50;;;;;;6090474;29;20035;-79
2022/12/03 04:09:30;;;;;;;20.08;6.85;;;8.90;60.50;;;;;;6090122;29;20394;-79
2022/12/03 04:15:50;;;;;;;27.25;11.55;;;8.90;60.40;;;;;;6115029;29;20060;-79
2022/12/03 04:18:51;;;;;;;34.08;12.27;;;8.80;60.40;;;;;;6114552;29;20401;-79
2022/12/03 04:28:49;;;;;;;23.77;9.95;;;8.80;60.40;;;;;;6097541;29;20052;-79
2022/12/03 04:38:29;;;;;;;24.30;9.20;;;8.90;61.20;;;;;;6095315;29;20050;-79
2022/12/03 04:41:30;;;;;;;23.80;9.27;;;8.90;60.50;;;;;;6095178;29;20470;-78
2022/12/03 04:44:37;;;;;;;23.67;8.95;;;8.90;60.60;;;;;;6092475;29;20032;-79
2022/12/03 04:47:38;;;;;;;19.35;8.57;;;8.80;60.50;;;;;;6087973;29;20126;-79
2022/12/03 04:50:39;;;;;;;17.88;7.70;;;8.90;60.70;;;;;;6082713;29;20666;-80
2022/12/03 04:53:39;;;;;;;16.27;7.32;;;8.90;60.70;;;;;;6098945;29;20047;-79
2022/12/03 04:56:40;;;;;;;16.02;7.85;;;8.90;60.50;;;;;;6104909;29;20039;-79
2022/12/03 04:59:41;;;;;;;15.10;6.20;;;8.90;60.40;;;;;;6095453;29;20040;-79
2022/12/03 05:02:42;;;;;;;18.60;7.60;;;8.90;60.50;;;;;;6099121;29;20040;-79
2022/12/03 05:05:43;;;;;;;19.63;7.15;;;8.90;60.50;;;;;;6097053;29;20047;-79
2022/12/03 05:08:44;;;;;;;14.77;6.45;;;8.90;60.30;;;;;;6099381;29;20055;-78
2022/12/03 05:11:45;;;;;;;31.42;6.55;;;8.90;60.40;;;;;;6096732;29;20103;-80
2022/12/03 05:14:45;;;;;;;17.00;6.85;;;8.80;60.40;;;;;;6081549;29;20052;-79
2022/12/03 05:17:46;;;;;;;16.33;7.53;;;8.80;60.60;;;;;;6081608;29;20126;-80
2022/12/03 05:20:47;;;;;;;21.20;7.53;;;8.70;60.70;;;;;;6098258;29;20040;-79
2022/12/03 05:23:48;;;;;;;16.15;8.02;;;8.70;60.90;;;;;;6098027;29;20111;-78
2022/12/03 05:26:49;;;;;;;24.08;7.50;;;8.70;60.90;;;;;;6094272;29;20111;-78
2022/12/03 05:29:50;;;;;;;14.75;6.85;;;8.70;60.90;;;;;;6097857;29;20123;-79
2022/12/03 05:32:51;;;;;;;21.88;8.60;;;8.70;61.00;;;;;;6096585;29;20699;-79
2022/12/03 05:35:51;;;;;;;15.50;6.60;;;8.70;61.00;;;;;;6095029;29;20079;-78
2022/12/03 05:38:52;;;;;;;17.42;6.40;;;8.60;61.10;;;;;;6098460;29;20080;-79
2022/12/03 05:45:12;;;;;;;27.65;11.18;;;8.60;61.60;;;;;;6097290;29;20036;-79
2022/12/03 05:48:15;;;;;;;25.27;10.60;;;8.60;61.60;;;;;;6098814;29;20052;-79
2022/12/03 05:51:16;;;;;;;17.65;8.15;;;8.60;61.60;;;;;;6096764;29;20135;-80
2022/12/03 05:54:17;;;;;;;18.98;7.85;;;8.60;61.50;;;;;;6081975;29;20066;-79
2022/12/03 05:57:17;;;;;;;17.95;7.97;;;8.60;61.50;;;;;;6097328;29;20355;-79
2022/12/03 06:00:27;;;;;;;19.42;8.98;;;8.60;61.60;;;;;;6112324;29;20059;-79
2022/12/03 06:03:28;;;;;;;21.48;8.38;;;8.60;61.70;;;;;;6097390;29;20044;-79
2022/12/03 06:06:29;;;;;;;22.33;8.32;;;8.70;61.70;;;;;;6097535;29;20374;-79
2022/12/03 06:09:30;;;;;;;20.27;8.32;;;8.70;61.60;;;;;;6078749;29;20679;-79
2022/12/03 06:12:31;;;;;;;16.85;8.10;;;8.70;61.50;;;;;;6110815;29;20127;-79
2022/12/03 06:15:31;;;;;;;18.02;7.43;;;8.80;61.50;;;;;;6098183;29;20055;-78
2022/12/03 06:18:32;;;;;;;17.80;7.75;;;8.80;61.40;;;;;;6096341;29;20044;-79
2022/12/03 06:21:33;;;;;;;18.42;8.05;;;8.80;61.40;;;;;;6095419;29;20366;-79
2022/12/03 06:24:35;;;;;;;25.35;9.30;;;8.80;61.50;;;;;;6095879;29;20044;-78
2022/12/03 06:27:36;;;;;;;31.90;8.55;;;8.80;61.40;;;;;;6094390;29;20131;-78
2022/12/03 06:30:36;;;;;;;22.75;9.20;;;8.80;61.40;;;;;;6093366;29;20089;-79
2022/12/03 06:33:37;;;;;;;21.45;8.75;;;8.80;61.50;;;;;;6093241;29;20044;-78
2022/12/03 06:36:38;;;;;;;25.13;8.30;;;8.80;61.40;;;;;;6094849;29;20096;-79
2022/12/03 06:39:39;;;;;;;20.77;7.15;;;8.70;61.50;;;;;;6077736;29;20067;-80
2022/12/03 06:42:40;;;;;;;14.50;7.03;;;8.70;61.50;;;;;;6098424;29;20469;-80
2022/12/03 06:45:40;;;;;;;15.85;7.47;;;8.70;61.70;;;;;;6102924;29;20044;-78
2022/12/03 06:48:41;;;;;;;18.13;6.90;;;8.60;61.80;;;;;;6101647;29;20036;-79
2022/12/03 06:51:43;;;;;;;21.88;7.65;;;8.60;61.80;;;;;;6102050;29;20047;-79
2022/12/03 06:54:45;;;;;;;14.63;6.80;;;8.60;62.00;;;;;;6100920;29;20099;-79
2022/12/03 06:57:45;;;;;;;16.75;6.93;;;8.60;61.90;;;;;;6101023;29;20040;-79
2022/12/03 07:00:46;;;;;;;19.02;8.27;;;8.60;61.90;;;;;;6108014;29;20046;-79
2022/12/03 07:03:47;;;;;;;16.35;7.15;;;8.60;62.00;;;;;;6098839;29;20044;-79
2022/12/03 07:06:48;;;;;;;18.45;7.40;;;8.60;62.10;;;;;;6102411;29;20046;-78
2022/12/03 07:09:50;;;;;;;17.38;6.43;;;8.60;62.30;;;;;;6086809;29;20478;-80
2022/12/03 07:12:51;;;;;;;16.55;7.15;;;8.60;62.20;;;;;;6084375;29;20103;-79
2022/12/03 07:15:52;;;;;;;16.80;7.05;;;8.60;62.20;;;;;;6099811;29;20103;-79
2022/12/03 07:18:54;;;;;;;13.48;7.03;;;8.70;62.10;;;;;;6103360;29;20040;-79
2022/12/03 07:21:56;;;;;;;15.52;7.70;;;8.70;62.00;;;;;;6098158;29;20477;-80
2022/12/03 07:24:56;;;;;;;23.38;8.48;;;8.70;61.90;;;;;;6096920;29;20043;-78
2022/12/03 07:27:57;;;;;;;22.75;8.13;;;8.70;61.90;;;;;;6114624;29;20044;-77
2022/12/03 07:30:58;;;;;;;18.05;8.27;;;8.80;62.00;;;;;;6099083;29;20418;-78
2022/12/03 07:33:59;;;;;;;16.75;7.28;;;8.90;62.00;;;;;;6098787;29;20245;-78
2022/12/03 07:37:00;;;;;;;17.17;8.23;;;8.90;61.90;;;;;;6083498;29;20040;-78
2022/12/03 07:40:01;;;;;;;23.45;8.52;;;9.00;61.70;;;;;;6100242;29;20051;-80
2022/12/03 07:43:02;;;;;;;20.20;8.63;;;9.00;61.70;;;;;;6085529;29;20100;-79
2022/12/03 07:46:03;;;;;;;26.75;9.57;;;8.90;61.60;;;;;;6102686;29;20123;-80
2022/12/03 07:49:04;;;;;;;22.88;9.52;;;9.00;61.80;;;;;;6101247;29;20064;-79
2022/12/03 07:52:06;;;;;;;25.75;10.27;;;9.00;61.70;;;;;;6076753;29;20033;-79
2022/12/03 07:55:07;;;;;;;33.83;9.48;;;9.10;61.60;;;;;;6099695;29;20575;-79
2022/12/03 07:58:08;;;;;;;34.13;9.48;;;9.10;61.50;;;;;;6093872;29;20043;-78
2022/12/03 08:01:09;;;;;;;23.80;8.77;;;9.10;61.40;;;;;;6094575;29;20124;-80
2022/12/03 08:04:13;;;;;;;16.83;7.32;;;9.20;61.50;;;;;;6086086;29;20087;-79
2022/12/03 08:07:16;;;;;;;16.45;8.77;;;9.20;61.30;;;;;;6091985;29;20147;-81
2022/12/03 08:10:21;;;;;;;23.65;9.07;;;9.30;61.10;;;;;;6083643;29;20047;-79
2022/12/03 08:13:22;;;;;;;19.80;8.32;;;9.20;60.90;;;;;;6097061;29;20055;-80
2022/12/03 08:16:23;;;;;;;26.50;9.32;;;9.20;61.00;;;;;;6094516;29;20072;-80
2022/12/03 08:19:24;;;;;;;14.82;7.63;;;9.20;60.90;;;;;;6098361;29;20044;-80
2022/12/03 08:22:25;;;;;;;26.90;9.10;;;9.30;61.00;;;;;;6098924;29;20058;-79
2022/12/03 08:25:31;;;;;;;16.10;8.35;;;9.30;60.90;;;;;;6095387;29;20063;-80
2022/12/03 08:28:32;;;;;;;22.27;9.45;;;9.40;60.90;;;;;;6099170;29;20347;-80
2022/12/03 08:31:33;;;;;;;18.63;8.50;;;9.40;60.70;;;;;;6096215;29;20055;-80
2022/12/03 08:34:39;;;;;;;23.55;9.63;;;9.40;60.50;;;;;;6096290;29;20062;-79
2022/12/03 08:37:40;;;;;;;22.75;8.75;;;9.50;60.50;;;;;;6095309;29;20040;-79
2022/12/03 08:40:44;;;;;;;22.65;8.88;;;9.50;60.50;;;;;;6096404;29;20039;-79
2022/12/03 08:43:45;;;;;;;23.33;8.77;;;9.60;60.50;;;;;;6098176;29;20036;-79
2022/12/03 08:47:11;;;;;;;20.85;8.90;;;9.60;60.30;;;;;;6095489;29;20114;-81
2022/12/03 08:50:26;;;;;;;24.83;9.63;;;9.70;60.50;;;;;;6091634;29;20040;-79
2022/12/03 08:53:41;;;;;;;22.15;9.52;;;9.80;60.50;;;;;;6095831;29;20036;-78
2022/12/03 08:56:43;;;;;;;29.90;10.35;;;9.80;60.20;;;;;;6091192;29;20040;-79
2022/12/03 08:59:45;;;;;;;34.85;12.93;;;9.90;60.00;;;;;;6092144;29;20381;-77
2022/12/03 09:02:51;;;;;;;25.88;9.77;;;9.80;59.80;;;;;;6105971;29;20071;-79
2022/12/03 09:05:52;;;;;;;26.67;9.93;;;9.90;59.80;;;;;;6111025;29;20040;-82
2022/12/03 09:08:53;;;;;;;20.88;8.07;;;9.90;60.40;;;;;;6083713;29;20116;-81
2022/12/03 09:11:54;;;;;;;22.55;8.90;;;9.90;59.50;;;;;;6089631;29;20040;-81
2022/12/03 09:14:55;;;;;;;27.38;9.30;;;10.00;59.50;;;;;;6097015;29;20147;-81
2022/12/03 09:17:56;;;;;;;19.70;8.65;;;10.00;59.50;;;;;;6081437;29;20351;-81
2022/12/03 09:20:58;;;;;;;25.83;10.40;;;10.00;59.30;;;;;;6098204;29;20063;-81
2022/12/03 09:23:59;;;;;;;22.67;9.73;;;10.10;59.30;;;;;;6100480;29;20044;-82
2022/12/03 09:27:02;;;;;;;23.52;9.63;;;10.10;59.20;;;;;;6078331;29;20043;-80
2022/12/03 09:30:05;;;;;;;23.27;8.85;;;10.20;59.00;;;;;;6093724;28;20051;-81
2022/12/03 09:33:05;;;;;;;21.23;9.27;;;10.20;59.00;;;;;;6098958;29;20040;-80
2022/12/03 09:36:06;;;;;;;26.00;9.63;;;10.20;58.90;;;;;;6094007;29;20062;-79
2022/12/03 09:39:07;;;;;;;22.58;10.23;;;10.20;58.80;;;;;;6096688;29;20127;-80
2022/12/03 09:42:09;;;;;;;21.42;9.82;;;10.30;58.80;;;;;;6097244;29;20466;-81
2022/12/03 09:45:13;;;;;;;26.08;11.63;;;10.30;58.70;;;;;;6096057;29;20458;-80
2022/12/03 09:48:17;;;;;;;20.10;8.95;;;10.40;58.60;;;;;;6093695;29;20044;-80
2022/12/03 09:51:18;;;;;;;27.40;10.73;;;10.40;58.50;;;;;;6094058;29;20044;-81
2022/12/03 09:54:25;;;;;;;29.90;10.05;;;10.40;58.30;;;;;;6092492;29;20058;-81
2022/12/03 09:57:26;;;;;;;24.15;10.13;;;10.40;58.50;;;;;;6089791;29;20040;-80
2022/12/03 10:00:29;;;;;;;24.75;9.60;;;10.50;58.60;;;;;;6097638;29;20103;-79
2022/12/03 10:03:31;;;;;;;23.13;10.38;;;10.50;58.40;;;;;;6097632;29;20379;-81
2022/12/03 10:06:32;;;;;;;20.77;9.68;;;10.60;58.10;;;;;;6093886;29;20040;-80
2022/12/03 10:09:33;;;;;;;24.63;11.38;;;10.60;58.00;;;;;;6095208;29;20035;-79
2022/12/03 10:12:34;;;;;;;24.52;9.50;;;10.60;57.90;;;;;;6095867;29;20059;-80
2022/12/03 10:15:35;;;;;;;31.65;13.55;;;10.70;57.90;;;;;;6079797;29;20037;-81
2022/12/03 10:18:47;;;;;;;29.08;11.00;;;10.80;57.70;;;;;;6097646;29;20054;-81
2022/12/03 10:21:48;;;;;;;27.73;11.93;;;10.90;57.40;;;;;;6097352;28;20378;-80
2022/12/03 10:25:07;;;;;;;30.33;12.57;;;10.90;57.20;;;;;;6096691;29;20040;-77
2022/12/03 10:28:08;;;;;;;25.50;11.23;;;10.90;57.10;;;;;;6096502;29;20048;-80
2022/12/03 10:31:13;;;;;;;21.50;10.85;;;11.00;57.10;;;;;;6089940;29;20487;-79
2022/12/03 10:34:24;;;;;;;24.85;11.88;;;11.00;56.90;;;;;;6088226;29;20119;-78
2022/12/03 10:37:24;;;;;;;27.65;11.32;;;11.10;56.80;;;;;;6101433;29;20036;-82
2022/12/03 10:40:30;;;;;;;35.42;13.55;;;11.10;56.70;;;;;;6079491;29;20473;-80
2022/12/03 10:43:31;;;;;;;25.80;10.95;;;11.10;56.50;;;;;;6083269;29;20053;-82
2022/12/03 10:46:33;;;;;;;34.35;12.77;;;11.20;56.40;;;;;;6099634;29;20072;-81
2022/12/03 10:49:33;;;;;;;33.33;12.48;;;11.20;56.20;;;;;;6078841;29;20668;-80
2022/12/03 10:52:34;;;;;;;37.75;15.07;;;11.30;56.30;;;;;;6076481;29;20109;-80
2022/12/03 10:55:39;;;;;;;30.75;12.35;;;11.40;56.10;;;;;;6086985;29;20125;-82
2022/12/03 10:58:41;;;;;;;34.22;12.23;;;11.50;55.90;;;;;;6095242;29;20155;-80
2022/12/03 11:01:42;;;;;;;32.08;14.02;;;11.60;55.70;;;;;;6097606;29;20047;-81
2022/12/03 11:04:43;;;;;;;31.67;13.25;;;11.60;55.70;;;;;;6081169;29;20426;-79
2022/12/03 11:07:44;;;;;;;29.48;11.82;;;11.70;55.60;;;;;;6082323;29;20185;-77
2022/12/03 11:11:17;;;;;;;47.67;18.55;;;11.80;55.40;;;;;;6099761;29;20063;-79
2022/12/03 11:14:52;;;;;;;37.00;14.43;;;11.80;55.30;;;;;;6080897;29;20032;-79
2022/12/03 11:17:53;;;;;;;43.88;16.13;;;11.90;54.90;;;;;;6092696;29;20044;-79
2022/12/03 11:21:02;;;;;;;29.63;12.63;;;12.00;54.80;;;;;;6063096;29;20094;-78
2022/12/03 11:24:04;;;;;;;28.75;12.38;;;12.00;54.80;;;;;;6075730;29;20128;-75
2022/12/03 11:27:09;;;;;;;29.63;11.77;;;12.10;54.80;;;;;;6094099;29;20076;-76
2022/12/03 11:30:10;;;;;;;35.90;14.32;;;12.10;54.50;;;;;;6093627;29;20039;-75
2022/12/03 11:33:22;;;;;;;27.98;13.93;;;12.20;54.50;;;;;;6096419;29;20108;-75
2022/12/03 11:36:25;;;;;;;26.83;12.45;;;12.20;54.50;;;;;;6078561;29;20099;-76
2022/12/03 11:40:02;;;;;;;31.63;12.85;;;12.20;54.30;;;;;;6080154;29;20028;-75
2022/12/03 11:43:04;;;;;;;29.95;12.48;;;12.20;54.20;;;;;;6000962;29;20041;-75
2022/12/03 11:46:09;;;;;;;34.30;13.40;;;12.10;54.20;;;;;;5986830;29;20038;-75
2022/12/03 11:49:36;;;;;;;27.95;12.43;;;12.10;54.40;;;;;;5981712;29;20046;-77
2022/12/03 11:52:42;;;;;;;33.60;14.52;;;12.00;54.30;;;;;;6010181;29;20053;-77
2022/12/03 11:55:58;;;;;;;34.03;13.27;;;11.90;54.50;;;;;;5999319;29;20089;-76
2022/12/03 11:59:01;;;;;;;26.38;10.65;;;11.90;54.40;;;;;;6000778;29;20075;-77
2022/12/03 12:02:18;;;;;;;28.35;12.20;;;11.90;54.30;;;;;;5985532;29;20089;-78
2022/12/03 12:05:32;;;;;;;25.30;11.07;;;11.80;54.30;;;;;;5989289;29;20046;-78
2022/12/03 12:08:37;;;;;;;25.88;11.32;;;11.80;54.40;;;;;;5993608;29;20388;-76
2022/12/03 12:11:40;;;;;;;28.15;11.15;;;11.80;54.40;;;;;;6002132;29;20069;-76
2022/12/03 12:14:41;;;;;;;28.80;12.32;;;11.80;54.40;;;;;;5981311;29;20054;-75
2022/12/03 12:17:41;;;;;;;40.45;14.35;;;11.70;54.40;;;;;;6018206;29;20124;-75
2022/12/03 12:20:42;;;;;;;28.80;13.07;;;11.70;54.40;;;;;;6095591;29;20048;-75
2022/12/03 12:23:43;;;;;;;27.35;11.90;;;11.80;54.60;;;;;;6094907;29;20772;-75
2022/12/03 12:26:50;;;;;;;29.10;12.77;;;11.80;54.50;;;;;;6094807;28;20056;-75
2022/12/03 12:30:13;;;;;;;36.00;16.55;;;11.90;54.50;;;;;;6095557;29;20370;-75
2022/12/03 12:33:22;;;;;;;37.78;12.10;;;11.80;54.70;;;;;;6075566;29;20687;-75
2022/12/03 12:36:23;;;;;;;28.48;12.50;;;11.80;54.50;;;;;;6097171;29;20050;-76
2022/12/03 12:39:25;;;;;;;32.15;12.82;;;11.80;54.50;;;;;;6094276;29;20032;-76
2022/12/03 12:42:33;;;;;;;33.28;12.85;;;11.80;54.40;;;;;;6091301;29;20028;-75
2022/12/03 12:45:39;;;;;;;28.88;12.93;;;11.80;54.50;;;;;;6051311;29;20036;-77
2022/12/03 12:48:40;;;;;;;37.35;12.13;;;11.70;54.30;;;;;;6095109;29;20387;-75
2022/12/03 12:51:46;;;;;;;27.33;13.80;;;11.90;54.30;;;;;;6098093;29;20068;-75
2022/12/03 12:54:47;;;;;;;26.60;10.70;;;11.90;54.10;;;;;;6082075;29;20055;-76
2022/12/03 12:57:49;;;;;;;29.30;11.95;;;11.90;53.90;;;;;;6097570;29;20373;-75
2022/12/03 13:00:53;;;;;;;28.90;11.98;;;11.90;54.00;;;;;;6096321;29;20036;-76
2022/12/03 13:03:55;;;;;;;32.47;12.70;;;11.90;53.90;;;;;;6092208;29;20046;-75
2022/12/03 13:06:56;;;;;;;37.85;12.43;;;11.90;53.80;;;;;;6080507;29;20051;-76
2022/12/03 13:09:59;;;;;;;33.78;12.70;;;11.90;53.70;;;;;;6094979;29;20095;-75
2022/12/03 13:13:19;;;;;;;35.60;14.82;;;11.90;53.80;;;;;;6097206;29;20074;-76
2022/12/03 13:16:30;;;;;;;33.40;13.60;;;11.90;54.00;;;;;;6073325;29;20145;-76
2022/12/03 13:19:33;;;;;;;36.05;13.93;;;11.90;54.00;;;;;;6095764;29;20040;-75
2022/12/03 13:22:34;;;;;;;25.52;11.75;;;11.80;54.10;;;;;;6094447;29;20043;-75
2022/12/03 13:25:37;;;;;;;29.45;12.18;;;11.90;54.20;;;;;;6094104;29;20063;-76
2022/12/03 13:28:40;;;;;;;36.78;13.82;;;11.90;54.20;;;;;;6079212;29;20044;-76
2022/12/03 13:32:08;;;;;;;26.00;11.68;;;12.00;54.20;;;;;;6081794;29;20048;-76
2022/12/03 13:35:09;;;;;;;30.17;12.98;;;12.00;54.10;;;;;;6075913;29;20107;-75
2022/12/03 13:38:15;;;;;;;34.50;12.77;;;12.00;54.10;;;;;;6094106;29;20123;-77
2022/12/03 13:44:45;;;;;;;25.75;11.93;;;12.10;53.90;;;;;;6092620;29;20040;-76
2022/12/03 13:47:52;;;;;;;34.72;12.88;;;12.10;53.80;;;;;;6077231;29;20550;-76
2022/12/03 13:50:53;;;;;;;29.65;10.80;;;12.10;53.80;;;;;;6075874;29;20051;-75
2022/12/03 13:53:58;;;;;;;29.52;12.68;;;12.20;53.80;;;;;;6084395;29;20055;-74
2022/12/03 13:57:01;;;;;;;34.17;12.77;;;12.20;53.70;;;;;;6096416;29;20528;-76
2022/12/03 14:00:03;;;;;;;26.80;11.55;;;12.20;53.60;;;;;;6094444;29;20123;-75
2022/12/03 14:03:13;;;;;;;29.38;13.45;;;12.20;53.50;;;;;;6095128;29;20419;-75
2022/12/03 14:06:14;;;;;;;30.08;11.18;;;12.20;53.50;;;;;;6096111;29;20040;-76
2022/12/03 14:09:15;;;;;;;32.72;13.43;;;12.20;53.50;;;;;;6096607;29;20470;-76
2022/12/03 14:12:24;;;;;;;27.88;10.90;;;12.10;53.50;;;;;;6093668;29;20108;-75
2022/12/03 14:15:25;;;;;;;27.52;11.60;;;12.10;53.60;;;;;;6089624;29;20132;-75
2022/12/03 14:18:26;;;;;;;32.75;13.40;;;12.10;53.70;;;;;;6094414;29;20040;-76
2022/12/03 14:21:27;;;;;;;30.85;12.60;;;12.10;53.60;;;;;;6096032;29;20387;-75
2022/12/03 14:24:28;;;;;;;30.00;12.38;;;12.10;53.60;;;;;;6098299;29;20460;-75
2022/12/03 14:27:29;;;;;;;24.17;10.70;;;12.10;53.70;;;;;;6081712;29;20385;-75
2022/12/03 14:30:30;;;;;;;23.77;11.63;;;12.10;53.80;;;;;;6097679;29;20052;-75
2022/12/03 14:33:31;;;;;;;36.78;14.43;;;12.10;53.70;;;;;;6095975;29;20370;-75
2022/12/03 14:36:32;;;;;;;33.28;13.55;;;12.10;53.70;;;;;;6098303;29;20041;-75
2022/12/03 14:39:33;;;;;;;23.83;11.50;;;12.10;53.90;;;;;;6095889;29;20036;-75
2022/12/03 14:42:35;;;;;;;27.52;11.55;;;12.10;53.80;;;;;;6097186;29;20639;-75
2022/12/03 14:45:38;;;;;;;31.38;12.45;;;12.20;53.70;;;;;;6096168;29;20698;-77
2022/12/03 14:48:39;;;;;;;22.95;10.80;;;12.10;53.60;;;;;;6092388;29;20044;-76
2022/12/03 14:51:39;;;;;;;23.63;10.88;;;12.10;53.60;;;;;;6096763;29;20401;-77
2022/12/03 14:54:41;;;;;;;25.38;12.18;;;12.10;53.60;;;;;;6092395;29;20036;-76
2022/12/03 14:57:42;;;;;;;27.58;12.23;;;12.10;53.80;;;;;;6079153;29;20083;-75
2022/12/03 15:00:43;;;;;;;30.58;11.77;;;12.10;53.80;;;;;;6060963;29;21055;-77
2022/12/03 15:03:44;;;;;;;29.23;11.82;;;12.10;53.80;;;;;;6089716;29;20075;-76
2022/12/03 15:06:45;;;;;;;24.58;10.32;;;12.00;53.80;;;;;;6092999;29;20126;-77
2022/12/03 15:09:46;;;;;;;28.48;11.98;;;12.00;53.90;;;;;;6090815;28;20055;-80
2022/12/03 15:12:47;;;;;;;25.52;11.20;;;12.00;54.00;;;;;;6092861;29;20044;-76
2022/12/03 15:15:48;;;;;;;29.08;11.25;;;11.90;54.00;;;;;;6101529;29;20036;-75
2022/12/03 15:18:49;;;;;;;23.83;11.07;;;11.90;54.10;;;;;;6095425;29;20373;-75
2022/12/03 15:21:50;;;;;;;25.27;10.02;;;11.90;54.20;;;;;;6094637;29;20039;-76
2022/12/03 15:24:51;;;;;;;31.27;13.35;;;11.90;54.30;;;;;;6088204;29;20478;-77
2022/12/03 15:27:52;;;;;;;34.90;13.77;;;11.80;54.30;;;;;;6095816;28;20075;-75
2022/12/03 15:30:53;;;;;;;42.35;16.27;;;11.90;54.40;;;;;;6095373;29;20050;-75
2022/12/03 15:33:54;;;;;;;34.95;14.20;;;11.90;54.50;;;;;;6090615;29;20149;-76
2022/12/03 15:36:55;;;;;;;32.03;13.90;;;11.90;54.50;;;;;;6092006;29;20060;-76
2022/12/03 15:39:56;;;;;;;29.10;12.75;;;11.90;54.40;;;;;;6094391;29;20025;-76
2022/12/03 15:42:57;;;;;;;27.60;12.77;;;11.80;54.30;;;;;;6080665;29;20156;-76
2022/12/03 15:45:57;;;;;;;31.23;12.57;;;11.80;54.30;;;;;;6090354;29;20064;-75
2022/12/03 15:48:58;;;;;;;24.88;10.68;;;11.80;54.30;;;;;;6092991;29;20147;-77
2022/12/03 15:51:59;;;;;;;34.80;11.00;;;11.70;54.30;;;;;;6090346;29;20386;-75
2022/12/03 15:55:01;;;;;;;23.50;10.00;;;11.70;54.30;;;;;;6106995;28;20036;-75
2022/12/03 15:58:01;;;;;;;28.25;10.65;;;11.70;54.20;;;;;;6090815;29;20047;-75
2022/12/03 16:01:02;;;;;;;34.75;9.90;;;11.70;54.20;;;;;;6088710;29;20518;-75
2022/12/03 16:04:03;;;;;;;24.08;9.93;;;11.70;54.30;;;;;;6091136;29;20146;-75
2022/12/03 16:07:06;;;;;;;24.05;9.95;;;11.70;54.30;;;;;;6106833;29;20040;-75